sensor_id;sensor_type;location;lat;lon;timestamp;P1;durP1;ratioP1;P2;durP2;ratioP2
34920;SDS011;21128;50.016;20.002;2023-08-30T00:01:12;24.10;;;16.30;;
34920;SDS011;21128;50.016;20.002;2023-08-30T00:03:39;24.40;;;14.50;;
34920;SDS011;21128;50.016;20.002;2023-08-30T00:06:06;22.70;;;15.30;;
34920;SDS011;21128;50.016;20.002;2023-08-30T00:08:33;20.80;;;14.40;;
34920;SDS011;21128;50.016;20.002;2023-08-30T00:11:01;21.70;;;15.00;;
34920;SDS011;21128;50.016;20.002;2023-08-30T00:13:30;22.20;;;15.30;;
34920;SDS011;21128;50.016;20.002;2023-08-30T00:15:59;18.60;;;13.50;;
34920;SDS011;21128;50.016;20.002;2023-08-30T00:18:26;22.60;;;13.80;;
34920;SDS011;21128;50.016;20.002;2023-08-30T00:20:53;22.40;;;13.00;;
34920;SDS011;21128;50.016;20.002;2023-08-30T00:23:20;20.20;;;13.10;;
34920;SDS011;21128;50.016;20.002;2023-08-30T00:25:47;16.10;;;11.60;;
34920;SDS011;21128;50.016;20.002;2023-08-30T00:28:13;12.10;;;9.90;;
34920;SDS011;21128;50.016;20.002;2023-08-30T00:30:41;11.90;;;9.10;;
34920;SDS011;21128;50.016;20.002;2023-08-30T00:33:08;19.40;;;9.10;;
34920;SDS011;21128;50.016;20.002;2023-08-30T00:35:35;10.60;;;7.50;;
34920;SDS011;21128;50.016;20.002;2023-08-30T00:38:02;11.30;;;7.50;;
34920;SDS011;21128;50.016;20.002;2023-08-30T00:40:37;13.60;;;6.60;;
34920;SDS011;21128;50.016;20.002;2023-08-30T00:43:05;10.70;;;6.10;;
34920;SDS011;21128;50.016;20.002;2023-08-30T00:45:33;11.80;;;6.10;;
34920;SDS011;21128;50.016;20.002;2023-08-30T00:48:01;11.20;;;6.30;;
34920;SDS011;21128;50.016;20.002;2023-08-30T00:50:28;14.90;;;6.30;;
34920;SDS011;21128;50.016;20.002;2023-08-30T00:52:55;11.80;;;6.00;;
34920;SDS011;21128;50.016;20.002;2023-08-30T00:55:21;12.60;;;7.20;;
34920;SDS011;21128;50.016;20.002;2023-08-30T00:57:48;7.90;;;5.50;;
34920;SDS011;21128;50.016;20.002;2023-08-30T01:00:15;8.80;;;5.30;;
34920;SDS011;21128;50.016;20.002;2023-08-30T01:02:43;12.70;;;6.40;;
34920;SDS011;21128;50.016;20.002;2023-08-30T01:05:12;9.20;;;5.80;;
34920;SDS011;21128;50.016;20.002;2023-08-30T01:07:39;9.70;;;5.90;;
34920;SDS011;21128;50.016;20.002;2023-08-30T01:10:07;11.40;;;5.70;;
34920;SDS011;21128;50.016;20.002;2023-08-30T01:12:39;11.40;;;6.30;;
34920;SDS011;21128;50.016;20.002;2023-08-30T01:15:15;8.10;;;5.60;;
34920;SDS011;21128;50.016;20.002;2023-08-30T01:17:49;9.60;;;5.10;;
34920;SDS011;21128;50.016;20.002;2023-08-30T01:20:18;10.60;;;5.90;;
34920;SDS011;21128;50.016;20.002;2023-08-30T01:28:23;8.60;;;6.10;;
34920;SDS011;21128;50.016;20.002;2023-08-30T01:30:53;11.40;;;6.30;;
34920;SDS011;21128;50.016;20.002;2023-08-30T01:33:21;10.40;;;5.70;;
34920;SDS011;21128;50.016;20.002;2023-08-30T01:35:49;11.10;;;5.90;;
34920;SDS011;21128;50.016;20.002;2023-08-30T01:38:18;8.50;;;5.50;;
34920;SDS011;21128;50.016;20.002;2023-08-30T01:40:45;8.20;;;5.70;;
34920;SDS011;21128;50.016;20.002;2023-08-30T01:43:14;6.90;;;5.30;;
34920;SDS011;21128;50.016;20.002;2023-08-30T01:45:43;12.30;;;5.70;;
34920;SDS011;21128;50.016;20.002;2023-08-30T01:48:11;10.20;;;5.80;;
34920;SDS011;21128;50.016;20.002;2023-08-30T01:50:41;6.00;;;5.30;;
34920;SDS011;21128;50.016;20.002;2023-08-30T01:53:10;9.50;;;5.10;;
34920;SDS011;21128;50.016;20.002;2023-08-30T01:55:39;7.20;;;5.60;;
34920;SDS011;21128;50.016;20.002;2023-08-30T01:58:06;9.10;;;6.40;;
34920;SDS011;21128;50.016;20.002;2023-08-30T02:00:34;7.10;;;5.60;;
34920;SDS011;21128;50.016;20.002;2023-08-30T02:03:09;9.00;;;5.80;;
34920;SDS011;21128;50.016;20.002;2023-08-30T02:05:48;10.70;;;5.40;;
34920;SDS011;21128;50.016;20.002;2023-08-30T02:08:35;12.40;;;6.00;;
34920;SDS011;21128;50.016;20.002;2023-08-30T02:11:26;9.40;;;5.40;;
34920;SDS011;21128;50.016;20.002;2023-08-30T02:13:55;8.50;;;5.40;;
34920;SDS011;21128;50.016;20.002;2023-08-30T02:16:25;8.90;;;5.70;;
34920;SDS011;21128;50.016;20.002;2023-08-30T02:18:54;9.20;;;5.80;;
34920;SDS011;21128;50.016;20.002;2023-08-30T02:21:21;9.10;;;5.90;;
34920;SDS011;21128;50.016;20.002;2023-08-30T02:23:49;6.30;;;5.50;;
34920;SDS011;21128;50.016;20.002;2023-08-30T02:26:18;9.40;;;6.00;;
34920;SDS011;21128;50.016;20.002;2023-08-30T02:28:46;7.30;;;4.90;;
34920;SDS011;21128;50.016;20.002;2023-08-30T02:31:13;5.70;;;5.10;;
34920;SDS011;21128;50.016;20.002;2023-08-30T02:33:39;10.40;;;5.50;;
34920;SDS011;21128;50.016;20.002;2023-08-30T02:36:06;8.40;;;5.10;;
34920;SDS011;21128;50.016;20.002;2023-08-30T02:38:34;9.80;;;5.30;;
34920;SDS011;21128;50.016;20.002;2023-08-30T02:41:01;5.00;;;4.50;;
34920;SDS011;21128;50.016;20.002;2023-08-30T02:43:28;8.80;;;5.10;;
34920;SDS011;21128;50.016;20.002;2023-08-30T02:45:55;5.50;;;4.70;;
34920;SDS011;21128;50.016;20.002;2023-08-30T02:48:22;7.90;;;6.00;;
34920;SDS011;21128;50.016;20.002;2023-08-30T02:50:48;9.40;;;4.70;;
34920;SDS011;21128;50.016;20.002;2023-08-30T02:53:15;5.90;;;4.80;;
34920;SDS011;21128;50.016;20.002;2023-08-30T02:55:42;5.10;;;4.60;;
34920;SDS011;21128;50.016;20.002;2023-08-30T02:58:09;6.80;;;4.30;;
34920;SDS011;21128;50.016;20.002;2023-08-30T03:00:36;6.50;;;4.80;;
34920;SDS011;21128;50.016;20.002;2023-08-30T03:03:02;6.10;;;4.60;;
34920;SDS011;21128;50.016;20.002;2023-08-30T03:05:30;5.50;;;4.50;;
34920;SDS011;21128;50.016;20.002;2023-08-30T03:07:57;7.70;;;4.70;;
34920;SDS011;21128;50.016;20.002;2023-08-30T03:10:24;5.70;;;4.80;;
34920;SDS011;21128;50.016;20.002;2023-08-30T03:12:51;6.60;;;5.50;;
34920;SDS011;21128;50.016;20.002;2023-08-30T03:15:18;7.70;;;5.20;;
34920;SDS011;21128;50.016;20.002;2023-08-30T03:17:45;5.80;;;5.10;;
34920;SDS011;21128;50.016;20.002;2023-08-30T03:20:12;5.80;;;5.20;;
34920;SDS011;21128;50.016;20.002;2023-08-30T03:22:38;6.50;;;5.50;;
34920;SDS011;21128;50.016;20.002;2023-08-30T03:25:05;8.10;;;5.80;;
34920;SDS011;21128;50.016;20.002;2023-08-30T03:27:33;9.30;;;5.50;;
34920;SDS011;21128;50.016;20.002;2023-08-30T03:30:00;7.20;;;4.90;;
34920;SDS011;21128;50.016;20.002;2023-08-30T03:32:27;6.00;;;5.40;;
34920;SDS011;21128;50.016;20.002;2023-08-30T03:34:54;5.90;;;5.30;;
34920;SDS011;21128;50.016;20.002;2023-08-30T03:37:21;6.80;;;5.30;;
34920;SDS011;21128;50.016;20.002;2023-08-30T03:39:48;8.50;;;5.50;;
34920;SDS011;21128;50.016;20.002;2023-08-30T03:42:14;8.50;;;5.70;;
34920;SDS011;21128;50.016;20.002;2023-08-30T03:44:41;7.30;;;5.70;;
34920;SDS011;21128;50.016;20.002;2023-08-30T03:47:08;8.50;;;5.60;;
34920;SDS011;21128;50.016;20.002;2023-08-30T03:49:35;7.50;;;5.60;;
34920;SDS011;21128;50.016;20.002;2023-08-30T03:52:02;8.10;;;6.10;;
34920;SDS011;21128;50.016;20.002;2023-08-30T03:54:29;8.10;;;6.80;;
34920;SDS011;21128;50.016;20.002;2023-08-30T03:56:56;7.60;;;6.40;;
34920;SDS011;21128;50.016;20.002;2023-08-30T03:59:23;8.60;;;5.90;;
34920;SDS011;21128;50.016;20.002;2023-08-30T04:01:51;12.20;;;6.70;;
34920;SDS011;21128;50.016;20.002;2023-08-30T04:04:18;8.80;;;6.60;;
34920;SDS011;21128;50.016;20.002;2023-08-30T04:06:45;7.10;;;6.10;;
34920;SDS011;21128;50.016;20.002;2023-08-30T04:09:12;9.80;;;7.10;;
34920;SDS011;21128;50.016;20.002;2023-08-30T04:11:38;9.30;;;7.50;;
34920;SDS011;21128;50.016;20.002;2023-08-30T04:14:05;12.30;;;6.70;;
34920;SDS011;21128;50.016;20.002;2023-08-30T04:16:33;10.20;;;7.70;;
34920;SDS011;21128;50.016;20.002;2023-08-30T04:19:00;8.60;;;7.20;;
34920;SDS011;21128;50.016;20.002;2023-08-30T04:21:26;8.80;;;7.30;;
34920;SDS011;21128;50.016;20.002;2023-08-30T04:23:53;9.40;;;7.30;;
34920;SDS011;21128;50.016;20.002;2023-08-30T04:26:20;10.10;;;7.40;;
34920;SDS011;21128;50.016;20.002;2023-08-30T04:28:47;8.70;;;7.00;;
34920;SDS011;21128;50.016;20.002;2023-08-30T04:31:14;8.30;;;7.40;;
34920;SDS011;21128;50.016;20.002;2023-08-30T04:33:41;13.50;;;7.40;;
34920;SDS011;21128;50.016;20.002;2023-08-30T04:36:07;9.50;;;7.20;;
34920;SDS011;21128;50.016;20.002;2023-08-30T04:38:37;11.00;;;7.70;;
34920;SDS011;21128;50.016;20.002;2023-08-30T04:41:03;9.90;;;6.80;;
34920;SDS011;21128;50.016;20.002;2023-08-30T04:43:30;10.10;;;7.60;;
34920;SDS011;21128;50.016;20.002;2023-08-30T04:45:57;12.70;;;7.00;;
34920;SDS011;21128;50.016;20.002;2023-08-30T04:48:24;9.40;;;6.80;;
34920;SDS011;21128;50.016;20.002;2023-08-30T04:50:57;10.80;;;7.10;;
34920;SDS011;21128;50.016;20.002;2023-08-30T04:53:29;12.90;;;7.70;;
34920;SDS011;21128;50.016;20.002;2023-08-30T04:55:56;14.90;;;8.20;;
34920;SDS011;21128;50.016;20.002;2023-08-30T04:58:23;10.80;;;7.80;;
34920;SDS011;21128;50.016;20.002;2023-08-30T05:00:50;9.60;;;7.90;;
34920;SDS011;21128;50.016;20.002;2023-08-30T05:03:16;9.50;;;8.00;;
34920;SDS011;21128;50.016;20.002;2023-08-30T05:05:46;15.10;;;9.20;;
34920;SDS011;21128;50.016;20.002;2023-08-30T05:08:13;12.40;;;9.40;;
34920;SDS011;21128;50.016;20.002;2023-08-30T05:10:40;14.90;;;9.40;;
34920;SDS011;21128;50.016;20.002;2023-08-30T05:13:07;18.60;;;9.90;;
34920;SDS011;21128;50.016;20.002;2023-08-30T05:15:33;16.40;;;10.40;;
34920;SDS011;21128;50.016;20.002;2023-08-30T05:18:00;19.10;;;10.00;;
34920;SDS011;21128;50.016;20.002;2023-08-30T05:20:27;11.60;;;9.10;;
34920;SDS011;21128;50.016;20.002;2023-08-30T05:22:54;16.10;;;9.50;;
34920;SDS011;21128;50.016;20.002;2023-08-30T05:25:20;13.10;;;10.00;;
34920;SDS011;21128;50.016;20.002;2023-08-30T05:27:47;13.30;;;10.90;;
34920;SDS011;21128;50.016;20.002;2023-08-30T05:30:14;13.70;;;9.90;;
34920;SDS011;21128;50.016;20.002;2023-08-30T05:32:41;16.80;;;11.20;;
34920;SDS011;21128;50.016;20.002;2023-08-30T05:35:08;20.70;;;10.70;;
34920;SDS011;21128;50.016;20.002;2023-08-30T05:37:35;16.00;;;10.80;;
34920;SDS011;21128;50.016;20.002;2023-08-30T05:40:02;19.70;;;11.40;;
34920;SDS011;21128;50.016;20.002;2023-08-30T05:42:30;21.80;;;11.40;;
34920;SDS011;21128;50.016;20.002;2023-08-30T05:44:57;20.80;;;11.90;;
34920;SDS011;21128;50.016;20.002;2023-08-30T05:47:23;23.80;;;12.40;;
34920;SDS011;21128;50.016;20.002;2023-08-30T05:49:50;19.80;;;11.20;;
34920;SDS011;21128;50.016;20.002;2023-08-30T05:52:17;18.80;;;10.50;;
34920;SDS011;21128;50.016;20.002;2023-08-30T05:54:44;24.50;;;12.20;;
34920;SDS011;21128;50.016;20.002;2023-08-30T05:57:11;17.20;;;11.00;;
34920;SDS011;21128;50.016;20.002;2023-08-30T05:59:38;14.70;;;11.40;;
34920;SDS011;21128;50.016;20.002;2023-08-30T06:02:05;25.40;;;11.50;;
34920;SDS011;21128;50.016;20.002;2023-08-30T06:04:32;19.60;;;12.80;;
34920;SDS011;21128;50.016;20.002;2023-08-30T06:06:59;16.90;;;11.40;;
34920;SDS011;21128;50.016;20.002;2023-08-30T06:09:26;19.30;;;11.90;;
34920;SDS011;21128;50.016;20.002;2023-08-30T06:11:53;22.10;;;12.90;;
34920;SDS011;21128;50.016;20.002;2023-08-30T06:14:19;17.90;;;11.40;;
34920;SDS011;21128;50.016;20.002;2023-08-30T06:16:48;16.30;;;10.20;;
34920;SDS011;21128;50.016;20.002;2023-08-30T06:19:15;16.70;;;10.40;;
34920;SDS011;21128;50.016;20.002;2023-08-30T06:21:42;24.70;;;11.80;;
34920;SDS011;21128;50.016;20.002;2023-08-30T06:24:09;15.30;;;10.30;;
34920;SDS011;21128;50.016;20.002;2023-08-30T06:26:35;17.80;;;10.80;;
34920;SDS011;21128;50.016;20.002;2023-08-30T06:29:02;19.30;;;11.20;;
34920;SDS011;21128;50.016;20.002;2023-08-30T06:31:29;15.20;;;10.00;;
34920;SDS011;21128;50.016;20.002;2023-08-30T06:33:58;14.90;;;10.30;;
34920;SDS011;21128;50.016;20.002;2023-08-30T06:36:25;19.20;;;11.60;;
34920;SDS011;21128;50.016;20.002;2023-08-30T06:38:52;18.70;;;10.90;;
34920;SDS011;21128;50.016;20.002;2023-08-30T06:41:18;19.90;;;11.00;;
34920;SDS011;21128;50.016;20.002;2023-08-30T06:43:45;20.60;;;11.60;;
34920;SDS011;21128;50.016;20.002;2023-08-30T06:46:12;19.60;;;11.40;;
34920;SDS011;21128;50.016;20.002;2023-08-30T06:48:39;21.00;;;11.30;;
34920;SDS011;21128;50.016;20.002;2023-08-30T06:51:06;18.60;;;10.80;;
34920;SDS011;21128;50.016;20.002;2023-08-30T06:53:33;17.90;;;11.90;;
34920;SDS011;21128;50.016;20.002;2023-08-30T06:56:00;16.50;;;11.80;;
34920;SDS011;21128;50.016;20.002;2023-08-30T06:58:27;17.00;;;11.40;;
34920;SDS011;21128;50.016;20.002;2023-08-30T07:00:56;20.80;;;11.90;;
34920;SDS011;21128;50.016;20.002;2023-08-30T07:03:24;21.60;;;12.40;;
34920;SDS011;21128;50.016;20.002;2023-08-30T07:05:51;22.60;;;11.70;;
34920;SDS011;21128;50.016;20.002;2023-08-30T07:08:18;24.00;;;13.10;;
34920;SDS011;21128;50.016;20.002;2023-08-30T07:10:45;20.20;;;13.20;;
34920;SDS011;21128;50.016;20.002;2023-08-30T07:13:12;24.10;;;14.40;;
34920;SDS011;21128;50.016;20.002;2023-08-30T07:15:39;23.90;;;14.30;;
34920;SDS011;21128;50.016;20.002;2023-08-30T07:18:08;23.20;;;15.60;;
34920;SDS011;21128;50.016;20.002;2023-08-30T07:20:35;23.30;;;14.50;;
34920;SDS011;21128;50.016;20.002;2023-08-30T07:23:03;23.30;;;15.20;;
34920;SDS011;21128;50.016;20.002;2023-08-30T07:25:30;19.10;;;13.80;;
34920;SDS011;21128;50.016;20.002;2023-08-30T07:27:59;27.20;;;15.30;;
34920;SDS011;21128;50.016;20.002;2023-08-30T07:30:26;26.40;;;15.30;;
34920;SDS011;21128;50.016;20.002;2023-08-30T07:32:54;24.30;;;15.70;;
34920;SDS011;21128;50.016;20.002;2023-08-30T07:35:20;30.80;;;18.40;;
34920;SDS011;21128;50.016;20.002;2023-08-30T07:37:47;26.50;;;16.20;;
34920;SDS011;21128;50.016;20.002;2023-08-30T07:40:14;24.70;;;15.40;;
34920;SDS011;21128;50.016;20.002;2023-08-30T07:42:41;33.90;;;15.60;;
34920;SDS011;21128;50.016;20.002;2023-08-30T07:45:08;26.20;;;16.20;;
34920;SDS011;21128;50.016;20.002;2023-08-30T07:47:36;30.30;;;15.90;;
34920;SDS011;21128;50.016;20.002;2023-08-30T07:50:04;31.20;;;17.10;;
34920;SDS011;21128;50.016;20.002;2023-08-30T07:52:32;26.50;;;15.40;;
34920;SDS011;21128;50.016;20.002;2023-08-30T07:54:58;27.30;;;15.40;;
34920;SDS011;21128;50.016;20.002;2023-08-30T07:57:25;28.90;;;15.80;;
34920;SDS011;21128;50.016;20.002;2023-08-30T07:59:52;30.60;;;16.00;;
34920;SDS011;21128;50.016;20.002;2023-08-30T08:02:19;21.90;;;13.60;;
34920;SDS011;21128;50.016;20.002;2023-08-30T08:04:46;26.70;;;14.80;;
34920;SDS011;21128;50.016;20.002;2023-08-30T08:07:12;22.40;;;13.10;;
34920;SDS011;21128;50.016;20.002;2023-08-30T08:09:39;22.00;;;12.40;;
34920;SDS011;21128;50.016;20.002;2023-08-30T08:12:06;21.30;;;12.30;;
34920;SDS011;21128;50.016;20.002;2023-08-30T08:14:33;19.10;;;12.70;;
34920;SDS011;21128;50.016;20.002;2023-08-30T08:17:00;23.00;;;11.80;;
34920;SDS011;21128;50.016;20.002;2023-08-30T08:19:26;18.90;;;10.60;;
34920;SDS011;21128;50.016;20.002;2023-08-30T08:21:53;14.90;;;9.60;;
34920;SDS011;21128;50.016;20.002;2023-08-30T08:24:21;14.60;;;10.30;;
34920;SDS011;21128;50.016;20.002;2023-08-30T08:26:48;17.20;;;9.90;;
34920;SDS011;21128;50.016;20.002;2023-08-30T08:29:15;17.80;;;10.90;;
34920;SDS011;21128;50.016;20.002;2023-08-30T08:31:42;19.70;;;10.80;;
34920;SDS011;21128;50.016;20.002;2023-08-30T08:34:10;21.10;;;11.80;;
34920;SDS011;21128;50.016;20.002;2023-08-30T08:36:39;18.90;;;10.30;;
34920;SDS011;21128;50.016;20.002;2023-08-30T08:39:07;21.60;;;11.70;;
34920;SDS011;21128;50.016;20.002;2023-08-30T08:41:39;19.00;;;9.70;;
34920;SDS011;21128;50.016;20.002;2023-08-30T08:44:11;17.60;;;10.80;;
34920;SDS011;21128;50.016;20.002;2023-08-30T08:46:39;15.60;;;9.30;;
34920;SDS011;21128;50.016;20.002;2023-08-30T08:49:15;15.50;;;9.70;;
34920;SDS011;21128;50.016;20.002;2023-08-30T08:51:43;16.00;;;9.50;;
34920;SDS011;21128;50.016;20.002;2023-08-30T08:54:11;14.40;;;8.90;;
34920;SDS011;21128;50.016;20.002;2023-08-30T08:56:39;14.40;;;9.20;;
34920;SDS011;21128;50.016;20.002;2023-08-30T08:59:07;12.20;;;8.20;;
34920;SDS011;21128;50.016;20.002;2023-08-30T09:01:35;14.70;;;8.30;;
34920;SDS011;21128;50.016;20.002;2023-08-30T09:04:05;11.90;;;7.80;;
34920;SDS011;21128;50.016;20.002;2023-08-30T09:06:37;12.50;;;7.40;;
34920;SDS011;21128;50.016;20.002;2023-08-30T09:09:07;12.60;;;6.90;;
34920;SDS011;21128;50.016;20.002;2023-08-30T09:11:35;11.60;;;6.90;;
34920;SDS011;21128;50.016;20.002;2023-08-30T09:14:02;10.20;;;6.20;;
34920;SDS011;21128;50.016;20.002;2023-08-30T09:16:29;9.20;;;6.70;;
34920;SDS011;21128;50.016;20.002;2023-08-30T09:18:57;12.50;;;6.50;;
34920;SDS011;21128;50.016;20.002;2023-08-30T09:21:28;10.00;;;6.90;;
34920;SDS011;21128;50.016;20.002;2023-08-30T09:24:01;9.80;;;6.50;;
34920;SDS011;21128;50.016;20.002;2023-08-30T09:26:32;11.30;;;6.80;;
34920;SDS011;21128;50.016;20.002;2023-08-30T09:29:05;12.40;;;6.90;;
34920;SDS011;21128;50.016;20.002;2023-08-30T09:31:36;9.10;;;6.90;;
34920;SDS011;21128;50.016;20.002;2023-08-30T09:34:05;9.90;;;7.00;;
34920;SDS011;21128;50.016;20.002;2023-08-30T09:36:40;10.10;;;6.80;;
34920;SDS011;21128;50.016;20.002;2023-08-30T09:39:09;8.70;;;6.10;;
34920;SDS011;21128;50.016;20.002;2023-08-30T09:41:37;9.10;;;6.60;;
34920;SDS011;21128;50.016;20.002;2023-08-30T09:49:23;10.70;;;7.10;;
34920;SDS011;21128;50.016;20.002;2023-08-30T09:51:51;9.90;;;6.80;;
34920;SDS011;21128;50.016;20.002;2023-08-30T09:54:23;11.70;;;7.70;;
34920;SDS011;21128;50.016;20.002;2023-08-30T09:56:51;9.80;;;7.40;;
34920;SDS011;21128;50.016;20.002;2023-08-30T09:59:22;13.80;;;8.60;;
34920;SDS011;21128;50.016;20.002;2023-08-30T10:01:50;14.10;;;9.40;;
34920;SDS011;21128;50.016;20.002;2023-08-30T10:04:20;19.10;;;8.90;;
34920;SDS011;21128;50.016;20.002;2023-08-30T10:06:47;11.40;;;8.10;;
34920;SDS011;21128;50.016;20.002;2023-08-30T10:09:14;12.30;;;9.10;;
34920;SDS011;21128;50.016;20.002;2023-08-30T10:11:43;12.70;;;9.00;;
34920;SDS011;21128;50.016;20.002;2023-08-30T10:14:12;10.20;;;8.60;;
34920;SDS011;21128;50.016;20.002;2023-08-30T10:16:41;12.10;;;8.70;;
34920;SDS011;21128;50.016;20.002;2023-08-30T10:19:16;13.60;;;9.00;;
34920;SDS011;21128;50.016;20.002;2023-08-30T10:22:05;12.40;;;8.40;;
34920;SDS011;21128;50.016;20.002;2023-08-30T10:24:42;10.90;;;8.20;;
34920;SDS011;21128;50.016;20.002;2023-08-30T10:27:13;13.60;;;8.00;;
34920;SDS011;21128;50.016;20.002;2023-08-30T10:29:41;10.30;;;7.50;;
34920;SDS011;21128;50.016;20.002;2023-08-30T10:32:10;11.50;;;7.80;;
34920;SDS011;21128;50.016;20.002;2023-08-30T10:34:37;12.80;;;8.60;;
34920;SDS011;21128;50.016;20.002;2023-08-30T10:37:07;11.40;;;8.20;;
34920;SDS011;21128;50.016;20.002;2023-08-30T10:39:40;11.10;;;7.70;;
34920;SDS011;21128;50.016;20.002;2023-08-30T10:42:11;12.60;;;7.70;;
34920;SDS011;21128;50.016;20.002;2023-08-30T10:44:56;12.50;;;7.50;;
34920;SDS011;21128;50.016;20.002;2023-08-30T10:47:26;9.50;;;7.20;;
34920;SDS011;21128;50.016;20.002;2023-08-30T10:50:00;10.90;;;8.20;;
34920;SDS011;21128;50.016;20.002;2023-08-30T10:52:30;10.60;;;7.60;;
34920;SDS011;21128;50.016;20.002;2023-08-30T10:55:04;12.00;;;8.10;;
34920;SDS011;21128;50.016;20.002;2023-08-30T10:57:42;9.20;;;7.10;;
34920;SDS011;21128;50.016;20.002;2023-08-30T11:00:22;12.50;;;8.30;;
34920;SDS011;21128;50.016;20.002;2023-08-30T11:02:50;10.70;;;7.70;;
34920;SDS011;21128;50.016;20.002;2023-08-30T11:05:21;9.80;;;7.30;;
34920;SDS011;21128;50.016;20.002;2023-08-30T11:07:52;14.10;;;8.30;;
34920;SDS011;21128;50.016;20.002;2023-08-30T11:10:20;9.10;;;7.10;;
34920;SDS011;21128;50.016;20.002;2023-08-30T11:12:48;9.20;;;7.30;;
34920;SDS011;21128;50.016;20.002;2023-08-30T11:15:16;9.90;;;7.80;;
34920;SDS011;21128;50.016;20.002;2023-08-30T11:17:43;10.30;;;8.40;;
34920;SDS011;21128;50.016;20.002;2023-08-30T11:20:11;9.70;;;8.30;;
34920;SDS011;21128;50.016;20.002;2023-08-30T11:22:41;12.00;;;8.70;;
34920;SDS011;21128;50.016;20.002;2023-08-30T11:25:09;15.20;;;9.20;;
34920;SDS011;21128;50.016;20.002;2023-08-30T11:27:37;16.00;;;9.80;;
34920;SDS011;21128;50.016;20.002;2023-08-30T11:30:05;13.80;;;8.40;;
34920;SDS011;21128;50.016;20.002;2023-08-30T11:32:35;11.50;;;9.10;;
34920;SDS011;21128;50.016;20.002;2023-08-30T11:35:03;11.20;;;8.80;;
34920;SDS011;21128;50.016;20.002;2023-08-30T11:37:31;17.50;;;9.60;;
34920;SDS011;21128;50.016;20.002;2023-08-30T11:39:59;11.60;;;9.10;;
34920;SDS011;21128;50.016;20.002;2023-08-30T11:42:27;14.40;;;8.70;;
34920;SDS011;21128;50.016;20.002;2023-08-30T11:44:54;10.00;;;8.70;;
34920;SDS011;21128;50.016;20.002;2023-08-30T11:47:25;15.00;;;9.10;;
34920;SDS011;21128;50.016;20.002;2023-08-30T11:49:53;10.20;;;8.20;;
34920;SDS011;21128;50.016;20.002;2023-08-30T11:52:22;10.40;;;8.50;;
34920;SDS011;21128;50.016;20.002;2023-08-30T11:54:51;12.50;;;8.70;;
34920;SDS011;21128;50.016;20.002;2023-08-30T11:57:18;12.30;;;8.20;;
34920;SDS011;21128;50.016;20.002;2023-08-30T11:59:45;16.40;;;9.80;;
34920;SDS011;21128;50.016;20.002;2023-08-30T12:02:14;12.00;;;10.00;;
34920;SDS011;21128;50.016;20.002;2023-08-30T12:04:43;14.70;;;8.70;;
34920;SDS011;21128;50.016;20.002;2023-08-30T12:07:24;14.40;;;9.60;;
34920;SDS011;21128;50.016;20.002;2023-08-30T12:09:52;10.70;;;9.10;;
34920;SDS011;21128;50.016;20.002;2023-08-30T12:12:30;12.20;;;8.90;;
34920;SDS011;21128;50.016;20.002;2023-08-30T12:14:57;10.70;;;9.00;;
34920;SDS011;21128;50.016;20.002;2023-08-30T12:17:23;11.50;;;8.70;;
34920;SDS011;21128;50.016;20.002;2023-08-30T12:19:57;11.70;;;9.60;;
34920;SDS011;21128;50.016;20.002;2023-08-30T12:22:35;16.10;;;10.40;;
34920;SDS011;21128;50.016;20.002;2023-08-30T12:25:20;13.60;;;10.20;;
34920;SDS011;21128;50.016;20.002;2023-08-30T12:27:49;15.80;;;11.20;;
34920;SDS011;21128;50.016;20.002;2023-08-30T12:30:16;16.10;;;12.50;;
34920;SDS011;21128;50.016;20.002;2023-08-30T12:32:44;17.00;;;11.60;;
34920;SDS011;21128;50.016;20.002;2023-08-30T12:35:12;18.60;;;12.20;;
34920;SDS011;21128;50.016;20.002;2023-08-30T12:37:39;21.80;;;12.80;;
34920;SDS011;21128;50.016;20.002;2023-08-30T12:40:06;20.50;;;13.10;;
34920;SDS011;21128;50.016;20.002;2023-08-30T12:42:33;20.00;;;13.40;;
34920;SDS011;21128;50.016;20.002;2023-08-30T12:45:00;18.20;;;13.40;;
34920;SDS011;21128;50.016;20.002;2023-08-30T12:47:27;22.40;;;13.60;;
34920;SDS011;21128;50.016;20.002;2023-08-30T12:49:54;21.80;;;14.90;;
34920;SDS011;21128;50.016;20.002;2023-08-30T12:52:21;20.70;;;14.30;;
34920;SDS011;21128;50.016;20.002;2023-08-30T12:54:48;23.20;;;16.30;;
34920;SDS011;21128;50.016;20.002;2023-08-30T12:57:15;27.70;;;17.80;;
34920;SDS011;21128;50.016;20.002;2023-08-30T12:59:41;30.10;;;17.30;;
34920;SDS011;21128;50.016;20.002;2023-08-30T13:02:08;26.90;;;18.00;;
34920;SDS011;21128;50.016;20.002;2023-08-30T13:04:35;27.40;;;18.50;;
34920;SDS011;21128;50.016;20.002;2023-08-30T13:07:04;25.20;;;16.60;;
34920;SDS011;21128;50.016;20.002;2023-08-30T13:09:32;25.20;;;16.90;;
34920;SDS011;21128;50.016;20.002;2023-08-30T13:11:58;24.70;;;16.10;;
34920;SDS011;21128;50.016;20.002;2023-08-30T13:14:25;24.70;;;16.00;;
34920;SDS011;21128;50.016;20.002;2023-08-30T13:16:52;26.40;;;17.30;;
34920;SDS011;21128;50.016;20.002;2023-08-30T13:19:19;23.20;;;16.30;;
34920;SDS011;21128;50.016;20.002;2023-08-30T13:21:46;27.00;;;15.40;;
34920;SDS011;21128;50.016;20.002;2023-08-30T13:24:13;21.30;;;16.70;;
34920;SDS011;21128;50.016;20.002;2023-08-30T13:26:39;23.00;;;16.30;;
34920;SDS011;21128;50.016;20.002;2023-08-30T13:29:06;26.00;;;15.80;;
34920;SDS011;21128;50.016;20.002;2023-08-30T13:31:33;24.80;;;16.30;;
34920;SDS011;21128;50.016;20.002;2023-08-30T13:34:00;21.80;;;15.20;;
34920;SDS011;21128;50.016;20.002;2023-08-30T13:36:27;19.50;;;15.30;;
34920;SDS011;21128;50.016;20.002;2023-08-30T13:38:54;22.60;;;16.40;;
34920;SDS011;21128;50.016;20.002;2023-08-30T13:41:21;24.00;;;16.20;;
34920;SDS011;21128;50.016;20.002;2023-08-30T13:43:47;20.50;;;15.90;;
34920;SDS011;21128;50.016;20.002;2023-08-30T13:46:14;19.70;;;15.00;;
34920;SDS011;21128;50.016;20.002;2023-08-30T13:48:41;19.00;;;14.50;;
34920;SDS011;21128;50.016;20.002;2023-08-30T13:51:08;17.90;;;13.70;;
34920;SDS011;21128;50.016;20.002;2023-08-30T13:53:35;18.50;;;14.10;;
34920;SDS011;21128;50.016;20.002;2023-08-30T13:56:01;17.20;;;13.40;;
34920;SDS011;21128;50.016;20.002;2023-08-30T13:58:28;23.60;;;13.60;;
34920;SDS011;21128;50.016;20.002;2023-08-30T14:00:55;18.30;;;13.60;;
34920;SDS011;21128;50.016;20.002;2023-08-30T14:03:22;17.90;;;13.30;;
34920;SDS011;21128;50.016;20.002;2023-08-30T14:05:48;19.60;;;12.80;;
34920;SDS011;21128;50.016;20.002;2023-08-30T14:08:15;14.50;;;11.70;;
34920;SDS011;21128;50.016;20.002;2023-08-30T14:10:42;16.70;;;11.80;;
34920;SDS011;21128;50.016;20.002;2023-08-30T14:13:09;14.70;;;11.30;;
34920;SDS011;21128;50.016;20.002;2023-08-30T14:15:36;15.70;;;11.50;;
34920;SDS011;21128;50.016;20.002;2023-08-30T14:18:03;15.10;;;11.30;;
34920;SDS011;21128;50.016;20.002;2023-08-30T14:20:30;16.70;;;11.20;;
34920;SDS011;21128;50.016;20.002;2023-08-30T14:22:56;16.90;;;11.50;;
34920;SDS011;21128;50.016;20.002;2023-08-30T14:25:23;14.80;;;10.50;;
34920;SDS011;21128;50.016;20.002;2023-08-30T14:27:50;15.10;;;11.70;;
34920;SDS011;21128;50.016;20.002;2023-08-30T14:30:17;17.60;;;11.50;;
34920;SDS011;21128;50.016;20.002;2023-08-30T14:32:44;15.30;;;11.80;;
34920;SDS011;21128;50.016;20.002;2023-08-30T14:35:10;18.20;;;12.60;;